Main page
METAR-TAF:

METAR-TAF

Airports :

Hawarden Airport

Hawarden, Wales

latitude: 53-10N, longitude: 002-59W, elevation: 10 m

Current weather observation

The report was made 3 hours and 56 minutes ago, at 17:50 UTC
Wind 14 kt from the North/Northeast
Temperature 8°C
Humidity 53%
Pressure 1037 hPa
Visibility 10 km or more
Few clouds at a height of 2800 ft
Broken clouds at a height of 4800 ft

METAR: EGNR 281750Z 03014KT 9999 FEW028 BKN048 08/M01 Q1037

Time: 21:46 (21:46 UTC)

Forecast

The report was made 7 hours and 52 minutes ago, at 13:54 UTC
Forecast valid from 28 at 15 UTC to 28 at 18 UTC
Wind 12 kt from the Northeast
Visibility 10 km or more
Scattered clouds at a height of 3000 ft
Probability 30% :
Temporary
from 28 at 15 UTC to 28 at 18 UTC
Wind 15 kt from the Northeast with gusts up to 25 kt

TAF: EGNR 281354Z 2815/2818 04012KT 9999 SCT030 PROB30 TEMPO 2815/2818 05015G25KT

Weather observations and forecasts of more than 4000 airports (METAR and TAF reports).

The available stations are represented by yellow and red dots on the map.

Hover mouse over dot to see the name of the station.

Then click to see weather observations and forecasts.

To change the map : click on the green buttons with a black cross to zoom in, on the green button with a dash to zoom out, or on the green arrows for adjacent maps.


METAR-TAF: